Time;durP1;ratioP1;P1;durP2;ratioP2;P2;SDS_P1;SDS_P2;PMS_P1;PMS_P2;Temp;Humidity;BMP_temperature;BMP_pressure;BME280_temperature;BME280_humidity;BME280_pressure;Samples;Min_cycle;Max_cycle;Signal;HPM_P1;HPM_P2
2023/03/08 00:00:16;;;;;;;1.87;1.77;;;0.70;97.30;;;;;;5005120;28;20420;-88
2023/03/08 00:02:57;;;;;;;;;;;;;;;;;;;;;
2023/03/08 00:05:27;;;;;;;1.07;0.97;;;0.70;97.30;;;;;;5004750;28;20454;-88
2023/03/08 00:08:06;;;;;;;1.33;1.07;;;0.60;97.30;;;;;;4998152;28;20448;-88
2023/03/08 00:10:57;;;;;;;;;;;;;;;;;;;;;
2023/03/08 00:13:26;;;;;;;1.20;1.10;;;0.60;97.30;;;;;;5003403;28;20446;-88
2023/03/08 00:16:06;;;;;;;1.77;1.43;;;0.60;97.30;;;;;;5009901;28;20456;-88
2023/03/08 00:18:35;;;;;;;1.20;1.10;;;0.60;97.30;;;;;;5009477;28;20419;-88
2023/03/08 00:21:11;;;;;;;0.90;0.80;;;0.60;97.30;;;;;;5008599;28;20417;-90
2023/03/08 00:23:36;;;;;;;1.20;1.10;;;0.60;97.30;;;;;;5010216;28;20549;-88
2023/03/08 00:26:02;;;;;;;0.93;0.83;;;0.60;97.30;;;;;;5005050;28;20471;-88
2023/03/08 00:28:28;;;;;;;1.13;1.03;;;0.60;97.30;;;;;;5005847;28;20703;-89
2023/03/08 00:31:08;;;;;;;1.47;1.40;;;0.60;97.30;;;;;;4998184;28;20178;-89
2023/03/08 00:33:34;;;;;;;1.70;1.60;;;0.60;97.30;;;;;;5005027;28;20814;-89
2023/03/08 00:36:03;;;;;;;1.03;0.93;;;0.60;97.30;;;;;;5004730;28;20703;-90
2023/03/08 00:38:31;;;;;;;1.00;0.90;;;0.60;97.30;;;;;;5013513;28;20416;-90
2023/03/08 00:40:57;;;;;;;2.70;1.87;;;0.60;97.30;;;;;;5008770;28;21081;-88
2023/03/08 00:43:22;;;;;;;2.07;1.93;;;0.60;97.30;;;;;;5003654;28;20463;-88
2023/03/08 00:45:48;;;;;;;1.50;1.20;;;0.60;97.30;;;;;;5006755;28;20629;-88
2023/03/08 00:48:13;;;;;;;1.57;1.47;;;0.60;97.30;;;;;;5007570;28;20189;-88
2023/03/08 00:50:39;;;;;;;1.10;1.00;;;0.60;97.30;;;;;;5006181;28;20247;-88
2023/03/08 00:53:05;;;;;;;7.83;1.30;;;0.60;97.30;;;;;;5008812;28;20562;-88
2023/03/08 00:55:30;;;;;;;1.10;1.00;;;0.60;97.30;;;;;;5011007;28;20196;-88
2023/03/08 00:57:55;;;;;;;1.07;0.97;;;0.60;97.30;;;;;;5012862;28;20651;-88
2023/03/08 01:00:21;;;;;;;1.50;1.40;;;0.60;97.30;;;;;;5022563;28;20276;-88
2023/03/08 01:02:47;;;;;;;1.23;1.13;;;0.60;97.30;;;;;;5020282;28;20216;-88
2023/03/08 01:05:13;;;;;;;1.10;1.00;;;0.60;97.30;;;;;;5003696;28;20996;-88
2023/03/08 01:07:38;;;;;;;1.00;0.90;;;0.70;97.30;;;;;;5005486;28;20186;-88
2023/03/08 01:10:04;;;;;;;1.20;1.10;;;0.60;97.30;;;;;;5013559;28;20421;-89
2023/03/08 01:12:34;;;;;;;1.33;1.10;;;0.70;97.30;;;;;;5011002;28;20200;-89
2023/03/08 01:15:00;;;;;;;1.10;1.00;;;0.70;97.30;;;;;;5011568;28;20657;-88
2023/03/08 01:17:26;;;;;;;1.27;1.17;;;0.70;97.30;;;;;;5005351;28;20447;-88
2023/03/08 01:19:52;;;;;;;0.97;0.87;;;0.70;97.30;;;;;;5002728;28;20944;-90
2023/03/08 01:22:17;;;;;;;1.43;1.33;;;0.70;97.30;;;;;;5002504;28;20360;-88
2023/03/08 01:24:47;;;;;;;1.70;1.60;;;0.70;97.30;;;;;;5008344;28;20272;-88
2023/03/08 01:27:13;;;;;;;1.37;1.27;;;0.70;97.30;;;;;;5000799;28;20181;-89
2023/03/08 01:29:39;;;;;;;1.93;1.83;;;0.70;97.30;;;;;;5009482;28;20504;-88
2023/03/08 01:32:05;;;;;;;1.40;1.30;;;0.70;97.30;;;;;;5007983;28;20448;-89
2023/03/08 01:34:30;;;;;;;2.50;2.30;;;0.70;97.30;;;;;;5010521;28;20229;-88
2023/03/08 01:36:56;;;;;;;1.23;1.13;;;0.70;97.30;;;;;;5014247;28;20192;-88
2023/03/08 01:39:21;;;;;;;2.27;2.07;;;0.70;97.30;;;;;;5011732;28;20181;-88
2023/03/08 01:41:47;;;;;;;1.67;1.57;;;0.70;97.30;;;;;;5014883;28;20276;-89
2023/03/08 01:44:18;;;;;;;1.47;1.40;;;0.70;97.30;;;;;;5017140;28;20208;-88
2023/03/08 01:46:43;;;;;;;3.40;2.53;;;0.70;97.30;;;;;;5013414;28;20640;-88
2023/03/08 01:49:14;;;;;;;1.17;1.07;;;0.70;97.30;;;;;;5004830;28;20511;-89
2023/03/08 01:51:58;;;;;;;1.33;1.23;;;0.70;97.30;;;;;;5006098;28;20181;-90
2023/03/08 01:54:31;;;;;;;1.50;1.40;;;0.70;97.30;;;;;;5016568;28;20447;-90
2023/03/08 01:57:01;;;;;;;2.10;1.73;;;0.80;97.30;;;;;;5008834;28;20416;-88
2023/03/08 01:59:29;;;;;;;1.73;1.63;;;0.80;97.30;;;;;;5003455;28;20429;-88
2023/03/08 02:01:54;;;;;;;1.30;1.20;;;0.80;97.30;;;;;;5005615;28;20417;-88
2023/03/08 02:04:20;;;;;;;2.40;2.20;;;0.80;97.30;;;;;;5005750;28;20605;-89
2023/03/08 02:06:45;;;;;;;1.00;0.90;;;0.80;97.30;;;;;;5014420;28;20173;-88
2023/03/08 02:09:14;;;;;;;1.37;1.27;;;0.80;97.30;;;;;;5006259;28;20649;-89
2023/03/08 02:11:40;;;;;;;1.73;1.63;;;0.80;97.30;;;;;;5015698;28;20183;-89
2023/03/08 02:14:06;;;;;;;2.80;2.60;;;0.80;97.30;;;;;;5010964;28;20466;-88
2023/03/08 02:16:32;;;;;;;2.40;1.83;;;0.80;97.30;;;;;;5013002;28;20428;-89
2023/03/08 02:19:01;;;;;;;6.53;2.30;;;0.80;97.30;;;;;;5014992;28;20208;-90
2023/03/08 02:21:28;;;;;;;2.20;1.97;;;0.90;97.30;;;;;;5016545;28;20938;-89
2023/03/08 02:23:54;;;;;;;1.93;1.80;;;0.80;97.30;;;;;;5008650;28;20468;-88
2023/03/08 02:26:20;;;;;;;1.67;1.57;;;0.80;97.30;;;;;;5008353;28;20448;-90
2023/03/08 02:28:46;;;;;;;1.43;1.33;;;0.80;97.30;;;;;;5018384;28;20419;-89
2023/03/08 02:31:12;;;;;;;4.20;2.43;;;0.80;97.30;;;;;;5018575;28;20718;-90
2023/03/08 02:33:38;;;;;;;3.33;2.23;;;0.80;97.30;;;;;;5004817;28;20574;-89
2023/03/08 02:36:06;;;;;;;10.77;4.33;;;0.80;97.30;;;;;;5020051;28;20550;-90
2023/03/08 02:38:32;;;;;;;1.47;1.37;;;0.80;97.30;;;;;;5016402;28;20195;-91
2023/03/08 02:40:57;;;;;;;1.47;1.37;;;0.80;97.30;;;;;;5021844;28;20507;-89
2023/03/08 02:43:23;;;;;;;10.03;2.80;;;0.80;97.30;;;;;;5021162;28;20474;-89
2023/03/08 02:45:49;;;;;;;1.40;1.30;;;0.80;97.30;;;;;;5017877;28;20191;-89
2023/03/08 02:48:16;;;;;;;2.67;2.17;;;0.80;97.30;;;;;;5014690;28;20448;-90
2023/03/08 02:50:41;;;;;;;2.27;2.10;;;0.80;97.30;;;;;;5011095;28;20177;-89
2023/03/08 02:53:07;;;;;;;3.87;3.67;;;0.70;97.30;;;;;;5018585;28;20451;-89
2023/03/08 02:55:36;;;;;;;3.87;3.67;;;0.70;97.30;;;;;;5019957;28;20177;-89
2023/03/08 02:58:06;;;;;;;2.30;2.10;;;0.70;97.30;;;;;;5012567;28;20180;-89
2023/03/08 03:00:32;;;;;;;6.57;4.07;;;0.60;97.30;;;;;;5021294;28;20499;-88
2023/03/08 03:02:57;;;;;;;1.93;1.83;;;0.60;97.30;;;;;;5004745;28;20523;-91
2023/03/08 03:05:23;;;;;;;2.33;2.13;;;0.60;97.30;;;;;;5018841;28;20177;-89
2023/03/08 03:07:48;;;;;;;2.33;2.13;;;0.50;97.30;;;;;;5009277;28;20190;-89
2023/03/08 03:10:14;;;;;;;2.77;2.60;;;0.50;97.30;;;;;;5019948;28;20177;-88
2023/03/08 03:12:40;;;;;;;1.00;0.90;;;0.50;97.30;;;;;;5012912;28;20253;-88
2023/03/08 03:15:08;;;;;;;1.70;1.20;;;0.50;97.30;;;;;;5018941;28;20269;-90
2023/03/08 03:17:35;;;;;;;1.47;1.37;;;0.50;97.30;;;;;;5006060;28;20463;-90
2023/03/08 03:20:01;;;;;;;1.40;1.30;;;0.50;97.30;;;;;;5013952;28;20446;-89
2023/03/08 03:22:26;;;;;;;4.93;1.37;;;0.50;97.30;;;;;;5017812;28;20420;-91
2023/03/08 03:24:52;;;;;;;1.53;1.43;;;0.50;97.30;;;;;;5015299;28;20205;-89
2023/03/08 03:27:18;;;;;;;1.67;1.67;;;0.50;97.30;;;;;;5013613;28;20305;-89
2023/03/08 03:29:44;;;;;;;1.77;1.67;;;0.50;97.30;;;;;;5008990;28;20185;-89
2023/03/08 03:32:10;;;;;;;1.30;1.20;;;0.60;97.30;;;;;;5013378;28;20432;-90
2023/03/08 03:34:35;;;;;;;1.80;1.63;;;0.60;97.30;;;;;;5013292;28;20319;-88
2023/03/08 03:37:01;;;;;;;3.83;2.80;;;0.60;97.30;;;;;;5016690;28;20424;-89
2023/03/08 03:39:32;;;;;;;3.23;2.23;;;0.60;97.30;;;;;;5014735;28;20192;-89
2023/03/08 03:41:58;;;;;;;1.57;1.47;;;0.60;97.30;;;;;;5014789;28;20444;-89
2023/03/08 03:44:24;;;;;;;2.10;1.47;;;0.60;97.30;;;;;;5016705;28;20470;-88
2023/03/08 03:46:49;;;;;;;1.77;1.37;;;0.60;97.30;;;;;;5011361;28;20216;-90
2023/03/08 03:49:15;;;;;;;3.50;1.60;;;0.60;97.30;;;;;;5011096;28;20278;-88
2023/03/08 03:51:40;;;;;;;1.80;1.70;;;0.60;97.30;;;;;;5012071;28;20189;-89
2023/03/08 03:54:05;;;;;;;2.50;2.20;;;0.60;97.30;;;;;;5012762;28;20209;-90
2023/03/08 03:56:31;;;;;;;1.33;1.23;;;0.60;97.30;;;;;;5009264;28;20192;-89
2023/03/08 03:58:56;;;;;;;5.60;3.00;;;0.60;97.30;;;;;;5012556;28;20191;-89
2023/03/08 04:01:25;;;;;;;1.67;1.57;;;0.60;97.30;;;;;;5020222;28;20511;-91
2023/03/08 04:03:51;;;;;;;1.50;1.40;;;0.60;97.30;;;;;;5010999;28;20216;-88
2023/03/08 04:06:19;;;;;;;1.20;1.10;;;0.60;97.30;;;;;;5005840;28;20477;-88
2023/03/08 04:08:45;;;;;;;1.00;0.90;;;0.60;97.30;;;;;;5018463;28;20511;-89
2023/03/08 04:11:14;;;;;;;2.27;2.07;;;0.60;97.30;;;;;;5007657;28;20443;-91
2023/03/08 04:13:40;;;;;;;1.40;1.30;;;0.60;97.30;;;;;;5012335;28;20200;-88
2023/03/08 04:16:11;;;;;;;1.63;1.53;;;0.60;97.30;;;;;;5020555;28;20487;-89
2023/03/08 04:18:37;;;;;;;3.00;1.73;;;0.60;97.30;;;;;;5012770;28;20427;-91
2023/03/08 04:21:02;;;;;;;2.70;1.50;;;0.60;97.30;;;;;;5015869;28;20425;-90
2023/03/08 04:23:28;;;;;;;1.33;1.23;;;0.60;97.30;;;;;;5015272;28;20197;-90
2023/03/08 04:25:53;;;;;;;1.30;1.20;;;0.60;97.30;;;;;;5010274;28;20271;-89
2023/03/08 04:28:19;;;;;;;1.23;1.13;;;0.60;97.30;;;;;;5017286;28;20551;-90
2023/03/08 04:30:44;;;;;;;1.30;1.20;;;0.60;97.30;;;;;;5014537;28;20172;-90
2023/03/08 04:33:12;;;;;;;1.10;1.00;;;0.60;97.30;;;;;;5022929;28;20205;-91
2023/03/08 04:35:37;;;;;;;1.73;1.63;;;0.60;97.30;;;;;;5032470;28;20276;-91
2023/03/08 04:38:03;;;;;;;0.97;0.87;;;0.60;97.30;;;;;;5031781;28;20439;-92
2023/03/08 04:40:28;;;;;;;1.10;1.00;;;0.60;97.30;;;;;;5021664;28;20189;-91
2023/03/08 04:42:55;;;;;;;1.20;1.10;;;0.60;97.30;;;;;;5021631;28;20220;-90
2023/03/08 04:45:20;;;;;;;1.90;1.30;;;0.60;97.30;;;;;;5011056;28;20181;-89
2023/03/08 04:47:46;;;;;;;1.37;1.27;;;0.60;97.30;;;;;;5008412;28;20433;-89
2023/03/08 04:50:11;;;;;;;1.50;1.40;;;0.60;97.30;;;;;;5013249;28;20348;-88
2023/03/08 04:52:37;;;;;;;1.43;1.33;;;0.60;97.30;;;;;;5014716;28;20200;-90
2023/03/08 04:55:03;;;;;;;2.83;1.87;;;0.60;97.30;;;;;;5013721;28;20259;-89
2023/03/08 04:57:28;;;;;;;2.13;1.97;;;0.60;97.30;;;;;;5015545;28;20211;-89
2023/03/08 04:59:54;;;;;;;2.00;1.33;;;0.60;97.30;;;;;;5021629;28;20196;-89
2023/03/08 05:02:21;;;;;;;1.37;1.27;;;0.60;97.30;;;;;;5022523;28;20200;-90
2023/03/08 05:04:47;;;;;;;1.60;1.50;;;0.60;97.30;;;;;;5018837;28;20205;-88
2023/03/08 05:07:13;;;;;;;6.43;1.83;;;0.60;97.30;;;;;;5019085;28;20769;-90
2023/03/08 05:09:39;;;;;;;1.80;1.57;;;0.60;97.30;;;;;;5018173;28;20193;-89
2023/03/08 05:12:04;;;;;;;2.70;1.20;;;0.60;97.30;;;;;;5024350;28;20184;-90
2023/03/08 05:14:30;;;;;;;7.83;2.37;;;0.70;97.30;;;;;;5021920;28;20221;-89
2023/03/08 05:16:56;;;;;;;1.60;1.50;;;0.70;97.30;;;;;;5021511;28;20184;-89
2023/03/08 05:19:22;;;;;;;1.50;1.40;;;0.60;97.30;;;;;;5020531;28;20208;-91
2023/03/08 05:21:47;;;;;;;1.67;1.57;;;0.60;97.30;;;;;;5024191;28;20411;-90
2023/03/08 05:24:13;;;;;;;6.23;1.30;;;0.60;97.30;;;;;;5022336;28;20272;-90
2023/03/08 05:26:38;;;;;;;1.63;1.50;;;0.60;97.30;;;;;;5023580;28;20184;-90
2023/03/08 05:29:05;;;;;;;1.53;1.43;;;0.60;97.30;;;;;;5019785;28;20224;-88
2023/03/08 05:31:32;;;;;;;6.13;4.83;;;0.60;97.30;;;;;;5021600;28;20177;-90
2023/03/08 05:33:57;;;;;;;1.23;1.20;;;0.60;97.30;;;;;;5023471;28;20515;-89
2023/03/08 05:36:23;;;;;;;1.43;1.33;;;0.60;97.30;;;;;;5026024;28;20426;-90
2023/03/08 05:38:55;;;;;;;2.60;2.40;;;0.60;97.30;;;;;;5020768;28;20188;-89
2023/03/08 05:41:23;;;;;;;1.20;1.10;;;0.60;97.30;;;;;;5024731;28;20192;-89
2023/03/08 05:43:51;;;;;;;6.40;1.93;;;0.70;97.30;;;;;;5026597;28;20561;-89
2023/03/08 05:46:18;;;;;;;2.40;2.20;;;0.70;97.30;;;;;;5023222;28;20427;-89
2023/03/08 05:48:44;;;;;;;1.60;1.50;;;0.70;97.30;;;;;;5022000;28;20440;-89
2023/03/08 05:51:15;;;;;;;1.20;1.10;;;0.70;97.30;;;;;;5022370;28;20411;-89
2023/03/08 05:53:41;;;;;;;2.37;2.13;;;0.70;97.30;;;;;;5016225;28;20435;-89
2023/03/08 05:56:19;;;;;;;1.90;1.87;;;0.70;97.30;;;;;;5022528;28;20800;-88
2023/03/08 05:58:44;;;;;;;5.00;2.60;;;0.70;97.30;;;;;;5019048;28;20683;-87
2023/03/08 06:01:11;;;;;;;1.20;1.10;;;0.70;97.30;;;;;;5018740;28;20415;-89
2023/03/08 06:03:36;;;;;;;1.50;1.40;;;0.80;97.30;;;;;;5018316;28;20233;-90
2023/03/08 06:06:02;;;;;;;3.00;1.70;;;0.80;97.30;;;;;;5015610;28;20426;-88
2023/03/08 06:08:27;;;;;;;1.27;1.17;;;0.80;97.30;;;;;;5012085;28;20169;-88
2023/03/08 06:10:56;;;;;;;2.83;2.43;;;0.80;97.30;;;;;;5022301;28;20188;-90
2023/03/08 06:13:21;;;;;;;4.53;2.20;;;0.90;97.30;;;;;;5023656;28;20200;-88
2023/03/08 06:15:47;;;;;;;4.83;2.07;;;0.90;97.30;;;;;;5019393;28;20419;-88
2023/03/08 06:18:12;;;;;;;1.40;1.30;;;0.90;97.30;;;;;;5011865;28;20365;-89
2023/03/08 06:20:38;;;;;;;6.20;2.27;;;0.90;97.30;;;;;;5019308;28;20294;-88
2023/03/08 06:23:03;;;;;;;7.90;2.70;;;1.00;97.30;;;;;;5023566;28;20209;-90
2023/03/08 06:25:29;;;;;;;1.43;1.33;;;1.00;97.30;;;;;;5023646;28;20177;-89
2023/03/08 06:27:54;;;;;;;1.60;1.50;;;1.00;97.30;;;;;;5025128;28;20184;-88
2023/03/08 06:30:22;;;;;;;1.93;1.80;;;1.00;97.30;;;;;;5023840;28;20238;-89
2023/03/08 06:32:48;;;;;;;4.13;1.63;;;1.00;97.30;;;;;;5023958;28;20713;-89
2023/03/08 06:35:13;;;;;;;1.53;1.43;;;1.00;97.30;;;;;;5014752;28;20468;-88
2023/03/08 06:37:39;;;;;;;1.87;1.77;;;1.00;97.30;;;;;;5019810;28;20550;-88
2023/03/08 06:40:07;;;;;;;2.60;2.40;;;1.00;97.30;;;;;;5019973;28;20229;-88
2023/03/08 06:42:48;;;;;;;2.30;2.13;;;1.00;97.30;;;;;;5016196;28;20194;-88
2023/03/08 06:45:27;;;;;;;2.77;2.57;;;1.10;97.30;;;;;;5018462;28;20427;-88
2023/03/08 06:47:59;;;;;;;3.63;2.53;;;1.10;97.30;;;;;;5023218;28;20435;-84
2023/03/08 06:50:27;;;;;;;1.70;1.60;;;1.10;97.30;;;;;;5018958;28;20415;-88
2023/03/08 06:53:26;;;;;;;1.63;1.53;;;1.20;97.30;;;;;;5015966;28;20423;-88
2023/03/08 06:56:17;;;;;;;2.33;1.43;;;1.20;97.30;;;;;;5017587;28;20415;-88
2023/03/08 06:58:46;;;;;;;2.20;1.97;;;1.30;97.30;;;;;;5008711;28;20409;-88
2023/03/08 07:01:38;;;;;;;4.90;4.10;;;1.40;97.30;;;;;;5008924;28;20422;-88
2023/03/08 07:04:06;;;;;;;1.87;1.73;;;1.50;97.30;;;;;;4998380;28;20836;-87
2023/03/08 07:06:38;;;;;;;2.40;1.83;;;1.60;97.30;;;;;;5006682;28;20427;-88
2023/03/08 07:09:07;;;;;;;3.20;3.00;;;1.70;97.30;;;;;;5018159;28;20498;-88
2023/03/08 07:11:38;;;;;;;3.83;1.73;;;1.80;97.30;;;;;;5012850;28;20661;-87
2023/03/08 07:14:06;;;;;;;1.70;1.60;;;1.80;97.30;;;;;;5015183;28;20459;-87
2023/03/08 07:16:38;;;;;;;3.13;2.90;;;1.90;97.30;;;;;;5007923;28;20407;-88
2023/03/08 07:19:07;;;;;;;5.50;2.50;;;1.90;97.30;;;;;;5016313;28;20434;-87
2023/03/08 07:21:49;;;;;;;;;;;;;;;;;;;;;
2023/03/08 07:24:17;;;;;;;5.20;2.90;;;2.00;97.30;;;;;;5017527;28;20466;-87
2023/03/08 07:26:56;;;;;;;5.23;3.43;;;2.10;97.30;;;;;;5008694;28;20431;-87
2023/03/08 07:29:36;;;;;;;2.33;2.13;;;2.10;97.30;;;;;;5009951;28;20486;-88
2023/03/08 07:32:19;;;;;;;1.73;1.63;;;2.10;97.30;;;;;;5013782;28;20415;-89
2023/03/08 07:34:48;;;;;;;3.90;2.20;;;2.20;97.30;;;;;;5005220;28;20852;-87
2023/03/08 07:37:27;;;;;;;7.83;3.20;;;2.20;97.30;;;;;;5004978;28;20424;-88
2023/03/08 07:39:58;;;;;;;5.30;3.20;;;2.30;97.30;;;;;;5013205;28;20503;-88
2023/03/08 07:42:27;;;;;;;1.80;1.57;;;2.40;97.30;;;;;;4997526;28;20485;-88
2023/03/08 07:44:59;;;;;;;2.57;2.43;;;2.40;97.30;;;;;;5007011;28;20560;-87
2023/03/08 07:47:24;;;;;;;3.23;2.50;;;2.50;97.30;;;;;;5004843;28;20417;-88
2023/03/08 07:49:58;;;;;;;4.10;2.40;;;2.60;97.30;;;;;;5006800;28;20466;-87
2023/03/08 07:52:28;;;;;;;2.67;2.47;;;2.60;97.30;;;;;;5007600;28;20174;-87
2023/03/08 07:55:21;;;;;;;6.00;1.73;;;2.70;97.30;;;;;;5012954;28;20503;-87
2023/03/08 07:57:46;;;;;;;2.40;2.13;;;2.80;97.30;;;;;;5008873;28;20424;-88
2023/03/08 08:00:12;;;;;;;1.30;1.20;;;2.90;97.30;;;;;;5012385;28;20423;-87
2023/03/08 08:02:37;;;;;;;1.47;1.43;;;2.90;97.30;;;;;;5011589;28;20259;-88
2023/03/08 08:05:04;;;;;;;2.53;2.33;;;3.00;97.30;;;;;;5022491;28;20464;-88
2023/03/08 08:07:30;;;;;;;1.60;1.50;;;3.10;97.30;;;;;;5025088;28;20188;-89
2023/03/08 08:09:56;;;;;;;1.73;1.63;;;3.10;97.30;;;;;;5007551;28;20417;-88
2023/03/08 08:12:22;;;;;;;2.20;2.07;;;3.10;97.30;;;;;;5008799;28;20421;-88
2023/03/08 08:14:51;;;;;;;4.50;2.40;;;3.20;97.30;;;;;;5012229;28;20212;-89
2023/03/08 08:17:20;;;;;;;1.87;1.77;;;3.30;97.30;;;;;;5009943;28;20415;-90
2023/03/08 08:19:47;;;;;;;2.90;2.70;;;3.30;97.30;;;;;;5021467;28;20444;-88
2023/03/08 08:22:13;;;;;;;3.63;2.70;;;3.30;97.30;;;;;;5010507;28;20736;-88
2023/03/08 08:24:38;;;;;;;1.53;1.43;;;3.30;97.30;;;;;;5016273;28;20463;-88
2023/03/08 08:27:04;;;;;;;5.13;1.60;;;3.30;97.30;;;;;;5015926;28;20467;-88
2023/03/08 08:29:30;;;;;;;1.67;1.57;;;3.10;97.30;;;;;;5019280;28;20180;-88
2023/03/08 08:31:56;;;;;;;4.80;2.10;;;3.10;97.30;;;;;;5013154;28;20404;-88
2023/03/08 08:34:21;;;;;;;1.60;1.50;;;3.10;97.30;;;;;;5011280;28;20219;-88
2023/03/08 08:36:47;;;;;;;1.20;1.10;;;3.00;97.30;;;;;;5011136;28;20173;-87
2023/03/08 08:39:13;;;;;;;3.13;2.93;;;3.10;97.30;;;;;;5011603;28;20743;-88
2023/03/08 08:41:38;;;;;;;4.23;2.70;;;3.00;97.30;;;;;;5016730;28;20235;-87
2023/03/08 08:44:04;;;;;;;2.73;1.77;;;3.00;97.30;;;;;;5016662;28;20565;-87
2023/03/08 08:46:32;;;;;;;1.17;1.00;;;3.00;97.30;;;;;;5023534;28;20694;-87
2023/03/08 08:48:58;;;;;;;1.83;1.70;;;3.00;97.30;;;;;;5016490;28;20172;-87
2023/03/08 08:51:24;;;;;;;1.70;1.50;;;2.90;97.30;;;;;;5016586;28;20431;-86
2023/03/08 08:53:51;;;;;;;2.77;1.60;;;3.00;97.30;;;;;;5014789;28;20621;-86
2023/03/08 08:56:19;;;;;;;2.07;1.93;;;3.00;97.30;;;;;;5023877;28;20443;-87
2023/03/08 08:58:47;;;;;;;3.23;1.50;;;3.00;97.30;;;;;;5013593;28;20442;-87
2023/03/08 09:01:17;;;;;;;2.23;2.03;;;3.10;97.30;;;;;;5017070;28;20428;-87
2023/03/08 09:03:44;;;;;;;2.87;2.40;;;3.10;97.30;;;;;;5017130;28;20593;-87
2023/03/08 09:06:10;;;;;;;2.27;2.07;;;3.10;97.30;;;;;;5019426;28;20502;-87
2023/03/08 09:08:36;;;;;;;1.37;1.27;;;3.20;97.30;;;;;;5021014;28;20493;-87
2023/03/08 09:11:06;;;;;;;1.93;1.83;;;3.30;97.30;;;;;;5015713;28;20173;-88
2023/03/08 09:13:32;;;;;;;1.87;1.77;;;3.30;97.30;;;;;;5011738;28;20197;-88
2023/03/08 09:15:58;;;;;;;2.93;1.50;;;3.20;97.30;;;;;;5025519;28;20430;-89
2023/03/08 09:18:24;;;;;;;3.80;3.10;;;3.20;97.30;;;;;;5017609;28;20435;-88
2023/03/08 09:20:50;;;;;;;2.40;2.20;;;3.10;97.30;;;;;;5027525;28;20193;-88
2023/03/08 09:23:16;;;;;;;3.03;1.37;;;3.10;97.30;;;;;;5035401;28;20206;-88
2023/03/08 09:25:41;;;;;;;2.13;2.00;;;3.10;97.30;;;;;;5028410;28;20443;-88
2023/03/08 09:28:07;;;;;;;4.20;3.00;;;3.10;97.30;;;;;;5020742;28;20284;-88
2023/03/08 09:30:32;;;;;;;2.20;1.13;;;3.00;97.30;;;;;;5025730;28;20177;-88
2023/03/08 09:33:17;;;;;;;3.27;2.63;;;3.10;97.30;;;;;;5006561;28;20209;-88
2023/03/08 09:36:18;;;;;;;3.40;1.77;;;2.90;97.30;;;;;;5011035;28;20279;-87
2023/03/08 09:38:56;;;;;;;5.17;1.70;;;2.70;97.30;;;;;;5026181;28;20431;-87
2023/03/08 09:42:22;;;;;;;2.03;1.93;;;2.70;97.30;;;;;;5013506;28;20622;-88
2023/03/08 09:45:20;;;;;;;3.17;2.80;;;2.70;97.30;;;;;;4924800;29;20470;-88
2023/03/08 09:48:28;;;;;;;6.40;2.87;;;2.70;97.30;;;;;;4921061;29;20518;-88
2023/03/08 09:54:57;;;;;;;4.73;2.43;;;2.70;97.30;;;;;;4955699;28;20424;-88
2023/03/08 09:57:10;;;;;;;1.30;1.20;;;2.60;97.30;;;;;;5017096;28;20404;-87
2023/03/08 10:00:20;;;;;;;2.70;2.50;;;2.60;97.30;;;;;;5025432;28;20412;-88
2023/03/08 10:03:18;;;;;;;;;;;;;;;;;;;;;
2023/03/08 10:06:22;;;;;;;;;;;;;;;;;;;;;
2023/03/08 10:09:18;;;;;;;1.50;1.43;;;2.40;97.30;;;;;;5014282;28;20502;-88
2023/03/08 10:12:29;;;;;;;4.30;3.63;;;2.30;97.30;;;;;;5011503;28;20458;-88
2023/03/08 10:19:00;;;;;;;1.47;1.37;;;2.40;97.30;;;;;;4911550;29;20520;-88
2023/03/08 10:21:31;;;;;;;4.40;1.60;;;2.40;97.30;;;;;;4923848;29;20425;-88
2023/03/08 10:24:35;;;;;;;;;;;;;;;;;;;;;
2023/03/08 10:27:38;;;;;;;5.80;3.43;;;2.40;97.30;;;;;;4931552;29;20441;-88
2023/03/08 10:30:29;;;;;;;2.13;1.97;;;2.50;97.30;;;;;;4910581;29;20428;-89
2023/03/08 10:32:59;;;;;;;4.87;2.40;;;2.50;97.30;;;;;;4918885;29;20455;-89
2023/03/08 10:35:59;;;;;;;4.83;4.53;;;2.60;97.30;;;;;;4964952;28;20551;-89
2023/03/08 10:38:38;;;;;;;10.13;2.53;;;2.70;97.30;;;;;;5026116;28;20426;-88
2023/03/08 10:41:47;;;;;;;2.23;1.90;;;2.80;97.30;;;;;;5011027;28;20515;-88
2023/03/08 10:44:41;;;;;;;3.33;2.20;;;2.80;97.30;;;;;;5003834;28;20546;-89
2023/03/08 10:47:29;;;;;;;7.17;4.77;;;2.80;97.30;;;;;;5015457;28;20421;-88
2023/03/08 10:50:27;;;;;;;1.70;1.60;;;2.80;97.30;;;;;;5017787;28;20432;-88
2023/03/08 10:53:19;;;;;;;4.20;3.53;;;2.80;97.30;;;;;;5009654;28;20432;-88
2023/03/08 10:55:57;;;;;;;4.93;2.00;;;2.80;97.30;;;;;;4944112;29;20455;-88
2023/03/08 10:58:39;;;;;;;1.13;1.03;;;2.80;97.30;;;;;;5021003;28;20427;-88
2023/03/08 11:01:39;;;;;;;;;;;;;;;;;;;;;
2023/03/08 11:04:20;;;;;;;2.53;2.37;;;2.90;97.30;;;;;;5029579;28;20537;-88
2023/03/08 11:06:48;;;;;;;5.47;3.93;;;3.00;97.30;;;;;;5021172;28;20495;-88
2023/03/08 11:09:38;;;;;;;1.50;1.40;;;3.00;97.30;;;;;;5021026;28;20420;-88
2023/03/08 11:12:29;;;;;;;4.40;2.57;;;3.10;97.30;;;;;;5029695;28;20419;-87
2023/03/08 11:14:58;;;;;;;2.20;2.00;;;3.10;97.30;;;;;;5011259;28;20424;-88
2023/03/08 11:17:48;;;;;;;1.37;1.27;;;3.10;97.30;;;;;;5033922;28;20420;-88
2023/03/08 11:20:50;;;;;;;1.67;1.57;;;3.00;97.30;;;;;;5028294;28;20883;-88
2023/03/08 11:23:57;;;;;;;2.17;2.00;;;3.00;97.30;;;;;;5018338;28;20455;-88
2023/03/08 11:26:59;;;;;;;1.13;1.10;;;3.10;97.30;;;;;;5011718;28;20427;-88
2023/03/08 11:30:27;;;;;;;1.03;0.93;;;3.10;97.30;;;;;;5023860;28;20419;-87
2023/03/08 11:33:28;;;;;;;3.40;2.37;;;3.10;97.30;;;;;;4967090;28;20508;-88
2023/03/08 11:36:28;;;;;;;2.07;1.37;;;3.10;97.30;;;;;;4942124;28;20523;-87
2023/03/08 11:39:37;;;;;;;1.23;1.13;;;3.00;97.30;;;;;;4996817;28;20459;-87
2023/03/08 11:42:40;;;;;;;2.07;1.93;;;2.90;97.30;;;;;;4950166;28;20521;-87
2023/03/08 11:48:38;;;;;;;2.00;1.40;;;2.80;97.30;;;;;;4991010;28;20468;-87
2023/03/08 11:51:29;;;;;;;1.50;1.40;;;2.80;97.30;;;;;;4997631;28;20421;-87
2023/03/08 11:54:02;;;;;;;1.27;1.17;;;2.90;97.30;;;;;;5007565;28;20448;-87
2023/03/08 11:56:43;;;;;;;6.77;1.93;;;2.80;97.30;;;;;;4999453;28;20425;-88
2023/03/08 11:59:17;;;;;;;1.57;1.50;;;2.80;97.30;;;;;;5007021;28;20421;-86
2023/03/08 12:01:59;;;;;;;1.63;1.63;;;2.80;97.30;;;;;;4996844;28;20521;-87
2023/03/08 12:04:39;;;;;;;1.90;1.80;;;2.80;97.30;;;;;;5001414;28;20456;-88
2023/03/08 12:07:16;;;;;;;2.73;2.30;;;2.70;97.30;;;;;;4994090;28;20452;-88
2023/03/08 12:10:22;;;;;;;1.30;1.20;;;2.70;97.30;;;;;;4993341;28;20409;-88
2023/03/08 12:12:53;;;;;;;3.10;2.43;;;2.70;97.30;;;;;;4962201;28;20430;-87
2023/03/08 12:15:30;;;;;;;10.83;2.27;;;2.70;97.30;;;;;;4994787;28;20464;-88
2023/03/08 12:18:06;;;;;;;2.13;1.50;;;2.80;97.30;;;;;;4993748;28;20420;-88
2023/03/08 12:20:37;;;;;;;5.30;2.77;;;2.80;97.30;;;;;;4998901;28;20412;-88
2023/03/08 12:23:56;;;;;;;1.50;1.40;;;2.80;97.30;;;;;;4994472;28;20456;-86
2023/03/08 12:26:29;;;;;;;6.80;3.00;;;2.80;97.30;;;;;;4992976;28;20936;-87
2023/03/08 12:28:59;;;;;;;1.50;1.40;;;2.80;97.30;;;;;;4991616;28;20920;-87
2023/03/08 12:31:28;;;;;;;1.30;1.20;;;2.80;97.30;;;;;;4993108;28;20971;-88
2023/03/08 12:33:55;;;;;;;5.83;5.27;;;2.70;97.30;;;;;;4997700;28;20441;-88
2023/03/08 12:36:34;;;;;;;3.90;2.57;;;2.70;97.30;;;;;;5018331;28;20431;-87
2023/03/08 12:39:06;;;;;;;2.60;2.40;;;2.70;97.30;;;;;;5017968;28;20430;-87
2023/03/08 12:41:32;;;;;;;4.40;2.40;;;2.70;97.30;;;;;;5017518;28;20443;-87
2023/03/08 12:44:20;;;;;;;3.20;2.07;;;2.70;97.30;;;;;;5014009;28;20564;-88
2023/03/08 12:46:47;;;;;;;1.73;1.63;;;2.70;97.30;;;;;;5039681;28;20264;-87
2023/03/08 12:49:24;;;;;;;1.87;1.77;;;2.70;97.30;;;;;;5024711;28;20453;-87
2023/03/08 12:52:17;;;;;;;3.00;2.80;;;2.80;97.30;;;;;;5024833;28;20419;-87
2023/03/08 12:54:54;;;;;;;4.60;2.67;;;2.80;97.30;;;;;;5017277;28;20808;-87
2023/03/08 12:57:23;;;;;;;3.13;2.23;;;2.80;97.30;;;;;;5021580;28;20426;-87
2023/03/08 13:00:00;;;;;;;3.70;2.03;;;2.80;97.30;;;;;;5005539;28;20552;-87
2023/03/08 13:02:30;;;;;;;2.50;2.30;;;2.80;97.30;;;;;;5026376;28;20694;-87
2023/03/08 13:05:20;;;;;;;1.77;1.67;;;2.90;97.30;;;;;;5021140;28;20458;-87
2023/03/08 13:08:00;;;;;;;2.03;1.93;;;2.90;97.30;;;;;;5020710;28;20782;-87
2023/03/08 13:10:33;;;;;;;1.37;1.27;;;2.80;97.30;;;;;;5013477;28;20518;-87
2023/03/08 13:13:03;;;;;;;2.57;2.40;;;2.80;97.30;;;;;;5026925;28;20445;-87
2023/03/08 13:15:29;;;;;;;1.63;1.53;;;2.80;97.30;;;;;;5026988;28;20494;-87
2023/03/08 13:18:07;;;;;;;2.33;2.13;;;2.80;97.30;;;;;;5021518;28;20469;-87
2023/03/08 13:20:38;;;;;;;1.20;1.10;;;2.80;97.30;;;;;;5012173;28;20600;-88
2023/03/08 13:23:13;;;;;;;2.37;2.20;;;2.70;97.30;;;;;;5008377;28;20498;-88
2023/03/08 13:26:16;;;;;;;5.20;3.13;;;2.70;97.30;;;;;;5030264;28;20406;-88
2023/03/08 13:28:43;;;;;;;3.17;2.97;;;2.80;97.30;;;;;;5022835;28;20925;-87
2023/03/08 13:31:21;;;;;;;2.57;1.93;;;2.80;97.30;;;;;;5025410;28;20406;-88
2023/03/08 13:33:49;;;;;;;4.20;3.70;;;2.80;97.30;;;;;;5017904;28;20898;-87
2023/03/08 13:36:33;;;;;;;2.57;2.40;;;2.80;97.30;;;;;;5032930;28;20431;-87
2023/03/08 13:39:03;;;;;;;3.03;1.90;;;2.80;97.30;;;;;;5022833;28;20935;-87
2023/03/08 13:41:38;;;;;;;3.80;1.93;;;2.80;97.30;;;;;;5015967;28;20423;-87
2023/03/08 13:44:25;;;;;;;2.57;2.37;;;2.80;97.30;;;;;;5016077;28;20458;-87